createdAt,value
2016-06-07T00:00:07.975Z,1012.68
2016-06-07T00:01:07.963Z,1012.63
2016-06-07T00:02:07.950Z,1012.64
2016-06-07T00:03:07.937Z,1012.63
2016-06-07T00:04:07.938Z,1012.6
2016-06-07T00:05:07.927Z,1012.64
2016-06-07T00:06:07.913Z,1012.65
2016-06-07T00:07:07.901Z,1012.59
2016-06-07T00:08:07.887Z,1012.61
2016-06-07T00:09:07.874Z,1012.56
2016-06-07T00:10:07.877Z,1012.59
2016-06-07T00:11:07.865Z,1012.56
2016-06-07T00:12:07.852Z,1012.55
2016-06-07T00:13:07.838Z,1012.55
2016-06-07T00:14:07.840Z,1012.57
2016-06-07T00:15:07.828Z,1012.57
2016-06-07T00:16:07.815Z,1012.55
2016-06-07T00:17:07.803Z,1012.56
2016-06-07T00:18:07.805Z,1012.61
2016-06-07T00:19:07.792Z,1012.59
2016-06-07T00:20:07.779Z,1012.58
2016-06-07T00:21:07.767Z,1012.59
2016-06-07T00:22:07.754Z,1012.59
2016-06-07T00:23:07.756Z,1012.6
2016-06-07T00:24:07.742Z,1012.6
2016-06-07T00:25:07.730Z,1012.61
2016-06-07T00:26:07.717Z,1012.61
2016-06-07T00:27:07.704Z,1012.61
2016-06-07T00:28:07.708Z,1012.58
2016-06-07T00:29:07.695Z,1012.61
2016-06-07T00:30:07.681Z,1012.62
2016-06-07T00:31:07.668Z,1012.6
2016-06-07T00:32:07.655Z,1012.57
2016-06-07T00:33:07.658Z,1012.6
2016-06-07T00:34:07.645Z,1012.59
2016-06-07T00:35:07.632Z,1012.62
2016-06-07T00:36:07.650Z,1012.62
2016-06-07T00:37:07.606Z,1012.64
2016-06-07T00:38:07.610Z,1012.66
2016-06-07T00:39:07.596Z,1012.66
2016-06-07T00:40:07.582Z,1012.68
2016-06-07T00:41:07.570Z,1012.69
2016-06-07T00:42:07.557Z,1012.68
2016-06-07T00:43:07.560Z,1012.66
2016-06-07T00:44:07.546Z,1012.65
2016-06-07T00:45:07.534Z,1012.65
2016-06-07T00:46:07.521Z,1012.62
2016-06-07T00:47:07.509Z,1012.65
2016-06-07T00:48:07.511Z,1012.62
2016-06-07T00:49:07.498Z,1012.65
2016-06-07T00:50:07.484Z,1012.57
2016-06-07T00:51:07.472Z,1012.59
2016-06-07T00:52:07.459Z,1012.59
2016-06-07T00:53:07.446Z,1012.6
2016-06-07T00:54:07.448Z,1012.58
2016-06-07T00:55:07.436Z,1012.54
2016-06-07T00:56:07.439Z,1012.58
2016-06-07T00:57:07.411Z,1012.58
2016-06-07T00:58:07.413Z,1012.58
2016-06-07T00:59:07.400Z,1012.6
2016-06-07T01:00:07.387Z,1012.58
2016-06-07T01:01:07.374Z,1012.56
2016-06-07T01:02:07.361Z,1012.63
2016-06-07T01:03:07.348Z,1012.61
2016-06-07T01:04:07.350Z,1012.62
2016-06-07T01:05:07.338Z,1012.6
2016-06-07T01:06:08.121Z,1012.61
2016-06-07T01:07:07.312Z,1012.64
2016-06-07T01:08:07.299Z,1012.65
2016-06-07T01:09:07.286Z,1012.61
2016-06-07T01:10:07.289Z,1012.65
2016-06-07T01:11:07.276Z,1012.64
2016-06-07T01:12:07.262Z,1012.64
2016-06-07T01:13:07.249Z,1012.64
2016-06-07T01:14:07.252Z,1012.61
2016-06-07T01:15:07.224Z,1012.61
2016-06-07T01:16:07.226Z,1012.63
2016-06-07T01:17:07.214Z,1012.61
2016-06-07T01:18:07.201Z,1012.61
2016-06-07T01:19:07.187Z,1012.61
2016-06-07T01:20:07.175Z,1012.57
2016-06-07T01:21:07.709Z,1012.62
2016-06-07T01:22:07.165Z,1012.61
2016-06-07T01:23:07.151Z,1012.62
2016-06-07T01:24:07.139Z,1012.63
2016-06-07T01:25:07.125Z,1012.57
2016-06-07T01:26:07.114Z,1012.6
2016-06-07T01:27:07.116Z,1012.6
2016-06-07T01:28:07.103Z,1012.59
2016-06-07T01:29:07.089Z,1012.61
2016-06-07T01:30:07.077Z,1012.57
2016-06-07T01:31:07.064Z,1012.62
2016-06-07T01:32:07.051Z,1012.6
2016-06-07T01:33:07.053Z,1012.57
2016-06-07T01:34:07.041Z,1012.56
2016-06-07T01:35:07.027Z,1012.56
2016-06-07T01:36:07.016Z,1012.55
2016-06-07T01:37:07.018Z,1012.57
2016-06-07T01:38:06.989Z,1012.55
2016-06-07T01:39:06.976Z,1012.55
2016-06-07T01:40:06.979Z,1012.55
2016-06-07T01:41:06.966Z,1012.53
2016-06-07T01:42:06.953Z,1012.54
2016-06-07T01:43:06.940Z,1012.55
2016-06-07T01:44:06.926Z,1012.55
2016-06-07T01:45:06.914Z,1012.56
2016-06-07T01:46:06.917Z,1012.54
2016-06-07T01:47:06.903Z,1012.54
2016-06-07T01:48:06.894Z,1012.55
2016-06-07T01:49:06.897Z,1012.56
2016-06-07T01:50:06.898Z,1012.55
2016-06-07T01:51:07.057Z,1012.53
2016-06-07T01:52:06.917Z,1012.56
2016-06-07T01:53:06.918Z,1012.49
2016-06-07T01:54:06.910Z,1012.53
2016-06-07T01:55:06.903Z,1012.52
2016-06-07T01:56:06.896Z,1012.51
2016-06-07T01:57:06.887Z,1012.52
2016-06-07T01:58:06.895Z,1012.52
2016-06-07T01:59:06.884Z,1012.52
2016-06-07T02:00:06.872Z,1012.49
2016-06-07T02:01:06.861Z,1012.51
2016-06-07T02:02:06.851Z,1012.5
2016-06-07T02:03:06.839Z,1012.49
2016-06-07T02:04:06.843Z,1012.49
2016-06-07T02:05:06.832Z,1012.51
2016-06-07T02:06:07.038Z,1012.52
2016-06-07T02:07:06.822Z,1012.52
2016-06-07T02:08:06.795Z,1012.49
2016-06-07T02:09:06.782Z,1012.49
2016-06-07T02:10:06.785Z,1012.52
2016-06-07T02:11:06.771Z,1012.52
2016-06-07T02:12:06.760Z,1012.5
2016-06-07T02:13:06.747Z,1012.5
2016-06-07T02:14:06.735Z,1012.52
2016-06-07T02:15:06.721Z,1012.54
2016-06-07T02:16:06.724Z,1012.54
2016-06-07T02:17:06.710Z,1012.5
2016-06-07T02:18:06.699Z,1012.51
2016-06-07T02:19:06.685Z,1012.53
2016-06-07T02:20:06.672Z,1012.51
2016-06-07T02:21:06.659Z,1012.54
2016-06-07T02:22:06.646Z,1012.55
2016-06-07T02:23:06.649Z,1012.53
2016-06-07T02:24:06.637Z,1012.49
2016-06-07T02:25:06.623Z,1012.53
2016-06-07T02:26:06.610Z,1012.52
2016-06-07T02:27:06.598Z,1012.52
2016-06-07T02:28:06.584Z,1012.52
2016-06-07T02:29:06.587Z,1012.53
2016-06-07T02:30:06.573Z,1012.53
2016-06-07T02:31:06.561Z,1012.53
2016-06-07T02:32:06.548Z,1012.46
2016-06-07T02:33:06.536Z,1012.49
2016-06-07T02:34:06.539Z,1012.52
2016-06-07T02:35:06.509Z,1012.49
2016-06-07T02:36:06.512Z,1012.47
2016-06-07T02:37:06.702Z,1012.45
2016-06-07T02:38:06.486Z,1012.45
2016-06-07T02:39:06.473Z,1012.46
2016-06-07T02:40:06.461Z,1012.44
2016-06-07T02:41:06.447Z,1012.46
2016-06-07T02:42:06.481Z,1012.47
2016-06-07T02:43:06.438Z,1012.43
2016-06-07T02:44:06.424Z,1012.5
2016-06-07T02:45:06.411Z,1012.48
2016-06-07T02:46:06.399Z,1012.48
2016-06-07T02:47:06.385Z,1012.49
2016-06-07T02:48:06.372Z,1012.47
2016-06-07T02:49:06.406Z,1012.46
2016-06-07T02:50:06.363Z,1012.49
2016-06-07T02:51:06.350Z,1012.49
2016-06-07T02:52:06.336Z,1012.51
2016-06-07T02:53:06.324Z,1012.46
2016-06-07T02:54:06.310Z,1012.49
2016-06-07T02:55:06.313Z,1012.49
2016-06-07T02:56:06.301Z,1012.5
2016-06-07T02:57:06.287Z,1012.49
2016-06-07T02:58:06.274Z,1012.49
2016-06-07T02:59:06.262Z,1012.53
2016-06-07T03:00:06.249Z,1012.48
2016-06-07T03:01:06.236Z,1012.47
2016-06-07T03:02:06.239Z,1012.51
2016-06-07T03:03:06.225Z,1012.52
2016-06-07T03:04:06.212Z,1012.51
2016-06-07T03:05:06.200Z,1012.51
2016-06-07T03:06:06.186Z,1012.5
2016-06-07T03:07:06.173Z,1012.49
2016-06-07T03:08:06.176Z,1012.53
2016-06-07T03:09:06.164Z,1012.54
2016-06-07T03:10:06.150Z,1012.5
2016-06-07T03:11:06.153Z,1012.54
2016-06-07T03:12:06.124Z,1012.52
2016-06-07T03:13:06.111Z,1012.52
2016-06-07T03:14:06.099Z,1012.52
2016-06-07T03:15:06.085Z,1012.5
2016-06-07T03:16:06.088Z,1012.5
2016-06-07T03:17:06.075Z,1012.53
2016-06-07T03:18:06.063Z,1012.5
2016-06-07T03:19:06.050Z,1012.5
2016-06-07T03:20:06.240Z,1012.53
2016-06-07T03:21:06.024Z,1012.55
2016-06-07T03:22:06.011Z,1012.57
2016-06-07T03:23:06.013Z,1012.56
2016-06-07T03:24:06.001Z,1012.56
2016-06-07T03:25:05.988Z,1012.56
2016-06-07T03:26:05.975Z,1012.58
2016-06-07T03:27:05.962Z,1012.59
2016-06-07T03:28:05.949Z,1012.6
2016-06-07T03:29:05.936Z,1012.59
2016-06-07T03:30:05.985Z,1012.58
2016-06-07T03:31:05.926Z,1012.62
2016-06-07T03:32:05.929Z,1012.63
2016-06-07T03:33:05.900Z,1012.68
2016-06-07T03:34:05.887Z,1012.65
2016-06-07T03:35:05.873Z,1012.65
2016-06-07T03:36:06.205Z,1012.68
2016-06-07T03:37:05.864Z,1012.69
2016-06-07T03:38:05.850Z,1012.63
2016-06-07T03:39:05.838Z,1012.62
2016-06-07T03:40:05.825Z,1012.6
2016-06-07T03:41:05.812Z,1012.61
2016-06-07T03:42:05.799Z,1012.59
2016-06-07T03:43:05.849Z,1012.61
2016-06-07T03:44:05.773Z,1012.59
2016-06-07T03:45:05.760Z,1012.6
2016-06-07T03:46:05.763Z,1012.62
2016-06-07T03:47:05.750Z,1012.62
2016-06-07T03:48:05.737Z,1012.6
2016-06-07T03:49:05.724Z,1012.61
2016-06-07T03:50:05.711Z,1012.65
2016-06-07T03:51:05.699Z,1012.62
2016-06-07T03:52:06.326Z,1012.64
2016-06-07T03:53:05.688Z,1012.63
2016-06-07T03:54:05.675Z,1012.68
2016-06-07T03:55:05.662Z,1012.7
2016-06-07T03:56:05.649Z,1012.71
2016-06-07T03:57:05.636Z,1012.71
2016-06-07T03:58:05.623Z,1012.71
2016-06-07T03:59:05.610Z,1012.72
2016-06-07T04:00:05.613Z,1012.75
2016-06-07T04:01:05.601Z,1012.75
2016-06-07T04:02:05.587Z,1012.73
2016-06-07T04:03:05.574Z,1012.77
2016-06-07T04:04:05.561Z,1012.76
2016-06-07T04:05:05.548Z,1012.78
2016-06-07T04:06:05.551Z,1012.77
2016-06-07T04:07:05.632Z,1012.8
2016-06-07T04:08:05.525Z,1012.82
2016-06-07T04:09:05.512Z,1012.84
2016-06-07T04:10:05.500Z,1012.88
2016-06-07T04:11:05.486Z,1012.85
2016-06-07T04:12:05.473Z,1012.84
2016-06-07T04:13:05.461Z,1012.88
2016-06-07T04:14:05.464Z,1012.87
2016-06-07T04:15:05.450Z,1012.86
2016-06-07T04:16:05.437Z,1012.86
2016-06-07T04:17:05.425Z,1012.86
2016-06-07T04:18:05.412Z,1012.88
2016-06-07T04:19:05.399Z,1012.84
2016-06-07T04:20:05.385Z,1012.84
2016-06-07T04:21:05.388Z,1012.8
2016-06-07T04:22:06.188Z,1012.84
2016-06-07T04:23:05.363Z,1012.84
2016-06-07T04:24:05.350Z,1012.83
2016-06-07T04:25:05.337Z,1012.82
2016-06-07T04:26:05.323Z,1012.78
2016-06-07T04:27:05.327Z,1012.86
2016-06-07T04:28:05.313Z,1012.84
2016-06-07T04:29:05.301Z,1012.83
2016-06-07T04:30:05.287Z,1012.85
2016-06-07T04:31:05.275Z,1012.85
2016-06-07T04:32:05.262Z,1012.85
2016-06-07T04:33:05.248Z,1012.9
2016-06-07T04:34:05.237Z,1012.86
2016-06-07T04:35:05.238Z,1012.88
2016-06-07T04:36:05.226Z,1012.87
2016-06-07T04:37:05.212Z,1012.89
2016-06-07T04:38:05.200Z,1012.89
2016-06-07T04:39:05.186Z,1012.89
2016-06-07T04:40:05.190Z,1012.88
2016-06-07T04:41:05.161Z,1012.92
2016-06-07T04:42:05.164Z,1012.87
2016-06-07T04:43:05.150Z,1012.95
2016-06-07T04:44:05.139Z,1012.92
2016-06-07T04:45:05.124Z,1012.93
2016-06-07T04:46:05.111Z,1012.94
2016-06-07T04:47:05.099Z,1012.96
2016-06-07T04:48:05.102Z,1012.97
2016-06-07T04:49:05.089Z,1012.99
2016-06-07T04:50:05.075Z,1012.97
2016-06-07T04:51:05.063Z,1012.96
2016-06-07T04:52:05.049Z,1012.94
2016-06-07T04:53:05.037Z,1012.96
2016-06-07T04:54:05.024Z,1012.94
2016-06-07T04:55:05.027Z,1012.94
2016-06-07T04:56:05.638Z,1012.92
2016-06-07T04:57:05.001Z,1012.92
2016-06-07T04:58:04.988Z,1012.91
2016-06-07T04:59:04.975Z,1012.94
2016-06-07T05:00:04.962Z,1012.97
2016-06-07T05:01:04.965Z,1012.98
2016-06-07T05:02:04.951Z,1012.99
2016-06-07T05:03:04.939Z,1013.01
2016-06-07T05:04:04.926Z,1013.03
2016-06-07T05:05:04.913Z,1013.01
2016-06-07T05:06:04.901Z,1013.04
2016-06-07T05:07:05.028Z,1013.04
2016-06-07T05:08:04.890Z,1013.05
2016-06-07T05:09:04.876Z,1013.08
2016-06-07T05:10:04.864Z,1013.09
2016-06-07T05:11:04.851Z,1013.08
2016-06-07T05:12:04.838Z,1013.08
2016-06-07T05:13:04.841Z,1013.08
2016-06-07T05:14:04.828Z,1013.07
2016-06-07T05:15:04.815Z,1013.09
2016-06-07T05:16:04.802Z,1013.09
2016-06-07T05:17:04.788Z,1013.08
2016-06-07T05:18:04.792Z,1013.1
2016-06-07T05:19:04.778Z,1013.12
2016-06-07T05:20:04.969Z,1013.12
2016-06-07T05:21:04.752Z,1013.15
2016-06-07T05:22:05.162Z,1013.09
2016-06-07T05:23:04.743Z,1013.13
2016-06-07T05:24:04.730Z,1013.17
2016-06-07T05:25:04.794Z,1013.16
2016-06-07T05:26:04.704Z,1013.16
2016-06-07T05:27:04.707Z,1013.14
2016-06-07T05:28:04.694Z,1013.18
2016-06-07T05:29:04.680Z,1013.18
2016-06-07T05:30:04.667Z,1013.13
2016-06-07T05:31:04.654Z,1013.18
2016-06-07T05:32:04.642Z,1013.16
2016-06-07T05:33:04.645Z,1013.17
2016-06-07T05:34:04.632Z,1013.15
2016-06-07T05:35:04.635Z,1013.17
2016-06-07T05:36:04.606Z,1013.2
2016-06-07T05:37:04.590Z,1013.18
2016-06-07T05:38:04.592Z,1013.15
2016-06-07T05:39:04.580Z,1013.21
2016-06-07T05:40:04.567Z,1013.21
2016-06-07T05:41:04.554Z,1013.22
2016-06-07T05:42:04.856Z,1013.23
2016-06-07T05:43:04.544Z,1013.22
2016-06-07T05:44:04.531Z,1013.24
2016-06-07T05:45:04.518Z,1013.22
2016-06-07T05:46:04.505Z,1013.19
2016-06-07T05:47:04.508Z,1013.15
2016-06-07T05:48:04.494Z,1013.19
2016-06-07T05:49:04.481Z,1013.2
2016-06-07T05:50:04.469Z,1013.22
2016-06-07T05:51:04.471Z,1013.19
2016-06-07T05:52:04.458Z,1013.21
2016-06-07T05:53:04.446Z,1013.2
2016-06-07T05:54:04.433Z,1013.26
2016-06-07T05:55:04.436Z,1013.24
2016-06-07T05:56:04.422Z,1013.22
2016-06-07T05:57:04.410Z,1013.28
2016-06-07T05:58:04.397Z,1013.28
2016-06-07T05:59:04.400Z,1013.26
2016-06-07T06:00:04.386Z,1013.29
2016-06-07T06:01:04.373Z,1013.3
2016-06-07T06:02:04.377Z,1013.33
2016-06-07T06:03:04.363Z,1013.3
2016-06-07T06:04:04.351Z,1013.33
2016-06-07T06:05:04.337Z,1013.32
2016-06-07T06:06:04.340Z,1013.3
2016-06-07T06:07:04.327Z,1013.29
2016-06-07T06:08:04.455Z,1013.32
2016-06-07T06:09:04.301Z,1013.32
2016-06-07T06:10:04.288Z,1013.34
2016-06-07T06:11:04.291Z,1013.34
2016-06-07T06:12:04.278Z,1013.38
2016-06-07T06:13:04.265Z,1013.38
2016-06-07T06:14:04.253Z,1013.37
2016-06-07T06:15:04.255Z,1013.38
2016-06-07T06:16:04.242Z,1013.38
2016-06-07T06:17:04.228Z,1013.38
2016-06-07T06:18:04.232Z,1013.37
2016-06-07T06:19:04.219Z,1013.35
2016-06-07T06:20:04.222Z,1013.43
2016-06-07T06:21:04.192Z,1013.36
2016-06-07T06:22:04.461Z,1013.4
2016-06-07T06:23:04.183Z,1013.41
2016-06-07T06:24:04.170Z,1013.46
2016-06-07T06:25:04.172Z,1013.41
2016-06-07T06:26:04.160Z,1013.44
2016-06-07T06:27:04.147Z,1013.46
2016-06-07T06:28:04.133Z,1013.45
2016-06-07T06:29:04.136Z,1013.45
2016-06-07T06:30:04.123Z,1013.43
2016-06-07T06:31:04.111Z,1013.41
2016-06-07T06:32:04.113Z,1013.43
2016-06-07T06:33:04.099Z,1013.44
2016-06-07T06:34:04.088Z,1013.41
2016-06-07T06:35:04.074Z,1013.44
2016-06-07T06:36:04.076Z,1013.44
2016-06-07T06:37:04.079Z,1013.48
2016-06-07T06:38:04.051Z,1013.47
2016-06-07T06:39:04.038Z,1013.49
2016-06-07T06:40:04.040Z,1013.47
2016-06-07T06:41:04.028Z,1013.47
2016-06-07T06:42:04.014Z,1013.41
2016-06-07T06:43:04.018Z,1013.48
2016-06-07T06:44:04.005Z,1013.44
2016-06-07T06:45:03.992Z,1013.44
2016-06-07T06:46:03.978Z,1013.45
2016-06-07T06:47:03.982Z,1013.5
2016-06-07T06:48:03.969Z,1013.53
2016-06-07T06:49:03.955Z,1013.5
2016-06-07T06:50:03.959Z,1013.52
2016-06-07T06:51:03.945Z,1013.54
2016-06-07T06:52:03.933Z,1013.56
2016-06-07T06:53:03.935Z,1013.56
2016-06-07T06:54:03.923Z,1013.56
2016-06-07T06:55:03.909Z,1013.58
2016-06-07T06:56:03.911Z,1013.58
2016-06-07T06:57:03.915Z,1013.57
2016-06-07T06:58:03.902Z,1013.58
2016-06-07T06:59:03.889Z,1013.57
2016-06-07T07:00:03.876Z,1013.57
2016-06-07T07:01:03.878Z,1013.6
2016-06-07T07:02:03.866Z,1013.61
2016-06-07T07:03:03.853Z,1013.59
2016-06-07T07:04:03.855Z,1013.61
2016-06-07T07:05:03.843Z,1013.62
2016-06-07T07:06:03.846Z,1013.64
2016-06-07T07:07:03.832Z,1013.61
2016-06-07T07:08:03.819Z,1013.64
2016-06-07T07:09:03.821Z,1013.58
2016-06-07T07:10:03.809Z,1013.62
2016-06-07T07:11:03.796Z,1013.6
2016-06-07T07:12:03.798Z,1013.6
2016-06-07T07:13:03.786Z,1013.56
2016-06-07T07:14:03.789Z,1013.56
2016-06-07T07:15:03.776Z,1013.55
2016-06-07T07:16:03.778Z,1013.6
2016-06-07T07:17:03.765Z,1013.63
2016-06-07T07:18:03.753Z,1013.63
2016-06-07T07:19:03.755Z,1013.62
2016-06-07T07:20:03.961Z,1013.65
2016-06-07T07:21:03.744Z,1013.64
2016-06-07T07:22:03.748Z,1013.64
2016-06-07T07:23:03.734Z,1013.68
2016-06-07T07:24:03.721Z,1013.64
2016-06-07T07:25:03.725Z,1013.68
2016-06-07T07:26:03.727Z,1013.66
2016-06-07T07:27:03.714Z,1013.67
2016-06-07T07:28:03.716Z,1013.7
2016-06-07T07:29:03.719Z,1013.67
2016-06-07T07:30:03.707Z,1013.65
2016-06-07T07:31:03.710Z,1013.74
2016-06-07T07:32:03.696Z,1013.74
2016-06-07T07:33:03.699Z,1013.74
2016-06-07T07:34:03.686Z,1013.78
2016-06-07T07:35:03.705Z,1013.79
2016-06-07T07:36:03.691Z,1013.78
2016-06-07T07:37:03.710Z,1013.79
2016-06-07T07:38:03.682Z,1013.78
2016-06-07T07:39:03.684Z,1013.8
2016-06-07T07:40:03.670Z,1013.81
2016-06-07T07:41:03.673Z,1013.88
2016-06-07T07:42:03.677Z,1013.86
2016-06-07T07:43:03.679Z,1013.88
2016-06-07T07:44:03.682Z,1013.91
2016-06-07T07:45:03.668Z,1013.91
2016-06-07T07:46:03.671Z,1013.89
2016-06-07T07:47:03.673Z,1013.87
2016-06-07T07:48:03.677Z,1013.88
2016-06-07T07:49:03.664Z,1013.88
2016-06-07T07:50:03.666Z,1013.88
2016-06-07T07:51:03.669Z,1013.89
2016-06-07T07:52:03.969Z,1013.88
2016-06-07T07:53:03.659Z,1013.86
2016-06-07T07:54:03.661Z,1013.92
2016-06-07T07:55:03.664Z,1013.92
2016-06-07T07:56:03.667Z,1013.9
2016-06-07T07:57:03.669Z,1013.89
2016-06-07T07:58:03.672Z,1013.91
2016-06-07T07:59:03.660Z,1013.92
2016-06-07T08:00:03.678Z,1013.92
2016-06-07T08:01:03.665Z,1013.86
2016-06-07T08:02:03.668Z,1013.92
2016-06-07T08:03:03.671Z,1013.87
2016-06-07T08:04:03.673Z,1013.87
2016-06-07T08:05:03.676Z,1013.9
2016-06-07T08:06:03.678Z,1013.89
2016-06-07T08:07:03.681Z,1013.87
2016-06-07T08:08:03.669Z,1013.92
2016-06-07T08:09:03.671Z,1013.89
2016-06-07T08:10:03.674Z,1013.89
2016-06-07T08:11:03.676Z,1013.93
2016-06-07T08:12:03.679Z,1013.88
2016-06-07T08:13:03.682Z,1013.93
2016-06-07T08:14:03.684Z,1013.88
2016-06-07T08:15:03.687Z,1013.88
2016-06-07T08:16:03.689Z,1013.87
2016-06-07T08:17:03.692Z,1013.86
2016-06-07T08:18:03.726Z,1013.91
2016-06-07T08:19:03.682Z,1013.89
2016-06-07T08:20:03.685Z,1013.82
2016-06-07T08:21:03.703Z,1013.78
2016-06-07T08:22:03.861Z,1013.83
2016-06-07T08:23:03.692Z,1013.81
2016-06-07T08:24:03.696Z,1013.85
2016-06-07T08:25:03.698Z,1013.82
2016-06-07T08:26:03.700Z,1013.87
2016-06-07T08:27:03.703Z,1013.84
2016-06-07T08:28:03.706Z,1013.87
2016-06-07T08:29:03.708Z,1013.9
2016-06-07T08:30:03.712Z,1013.87
2016-06-07T08:31:03.714Z,1013.89
2016-06-07T08:32:03.733Z,1013.88
2016-06-07T08:33:03.704Z,1013.92
2016-06-07T08:34:03.722Z,1013.91
2016-06-07T08:35:03.709Z,1013.89
2016-06-07T08:36:03.727Z,1013.88
2016-06-07T08:37:03.716Z,1013.92
2016-06-07T08:38:03.718Z,1013.91
2016-06-07T08:39:03.720Z,1013.96
2016-06-07T08:40:03.723Z,1013.95
2016-06-07T08:41:03.725Z,1013.96
2016-06-07T08:42:03.713Z,1013.94
2016-06-07T08:43:03.731Z,1013.97
2016-06-07T08:44:03.718Z,1014.01
2016-06-07T08:45:03.720Z,1013.99
2016-06-07T08:46:03.723Z,1013.96
2016-06-07T08:47:03.820Z,1013.98
2016-06-07T08:48:03.729Z,1013.96
2016-06-07T08:49:03.731Z,1014.04
2016-06-07T08:50:03.734Z,1013.99
2016-06-07T08:51:03.736Z,1014.04
2016-06-07T08:52:03.740Z,1013.96
2016-06-07T08:53:03.742Z,1013.93
2016-06-07T08:54:03.745Z,1013.86
2016-06-07T08:55:03.747Z,1013.87
2016-06-07T08:56:03.750Z,1013.9
2016-06-07T08:57:03.753Z,1013.91
2016-06-07T08:58:03.756Z,1013.96
2016-06-07T08:59:03.758Z,1013.94
2016-06-07T09:00:03.761Z,1013.96
2016-06-07T09:01:03.764Z,1013.84
2016-06-07T09:02:03.766Z,1013.86
2016-06-07T09:03:03.753Z,1013.83
2016-06-07T09:04:03.756Z,1013.82
2016-06-07T09:05:03.758Z,1013.86
2016-06-07T09:06:03.761Z,1013.85
2016-06-07T09:07:03.764Z,1013.93
2016-06-07T09:08:03.766Z,1014.11
2016-06-07T09:09:03.769Z,1014.13
2016-06-07T09:10:03.772Z,1014.16
2016-06-07T09:11:03.774Z,1014.21
2016-06-07T09:12:03.778Z,1014.2
2016-06-07T09:13:03.780Z,1014.24
2016-06-07T09:14:03.768Z,1014.17
2016-06-07T09:15:03.770Z,1014.19
2016-06-07T09:16:03.773Z,1014.21
2016-06-07T09:17:03.776Z,1014.17
2016-06-07T09:18:03.778Z,1014.2
2016-06-07T09:19:03.781Z,1014.22
2016-06-07T09:20:03.987Z,1014.22
2016-06-07T09:21:03.786Z,1014.23
2016-06-07T09:22:03.790Z,1014.22
2016-06-07T09:23:03.792Z,1014.28
2016-06-07T09:24:03.794Z,1014.18
2016-06-07T09:25:03.797Z,1014.24
2016-06-07T09:26:03.800Z,1014.21
2016-06-07T09:27:03.803Z,1014.19
2016-06-07T09:28:03.806Z,1014.23
2016-06-07T09:29:03.808Z,1014.18
2016-06-07T09:30:03.810Z,1014.16
2016-06-07T09:31:03.813Z,1014.2
2016-06-07T09:32:03.817Z,1014.23
2016-06-07T09:33:03.819Z,1014.2
2016-06-07T09:34:03.837Z,1014.22
2016-06-07T09:35:03.825Z,1014.2
2016-06-07T09:36:03.827Z,1014.18
2016-06-07T09:37:03.844Z,1014.19
2016-06-07T09:38:03.847Z,1014.19
2016-06-07T09:39:03.850Z,1014.1
2016-06-07T09:40:03.852Z,1014.2
2016-06-07T09:41:03.855Z,1014.19
2016-06-07T09:42:03.858Z,1014.24
2016-06-07T09:43:03.861Z,1014.15
2016-06-07T09:44:03.863Z,1014.12
2016-06-07T09:45:03.866Z,1014.17
2016-06-07T09:46:03.868Z,1014.12
2016-06-07T09:47:03.872Z,1014.12
2016-06-07T09:48:03.890Z,1014.12
2016-06-07T09:49:03.893Z,1014.09
2016-06-07T09:50:03.896Z,1014.03
2016-06-07T09:51:03.898Z,1014.07
2016-06-07T09:52:03.901Z,1014.02
2016-06-07T09:53:03.904Z,1014.02
2016-06-07T09:54:03.906Z,1013.96
2016-06-07T09:55:03.909Z,1013.91
2016-06-07T09:56:03.928Z,1013.94
2016-06-07T09:57:03.930Z,1013.72
2016-06-07T09:58:03.933Z,1013.42
2016-06-07T09:59:03.936Z,1013.35
2016-06-07T10:00:03.938Z,1013.35
2016-06-07T10:01:03.941Z,1013.38
2016-06-07T10:02:03.944Z,1013.34
2016-06-07T10:03:03.946Z,1013.39
2016-06-07T10:04:03.964Z,1013.36
2016-06-07T10:05:03.967Z,1013.39
2016-06-07T10:06:03.970Z,1013.35
2016-06-07T10:07:03.972Z,1013.39
2016-06-07T10:08:04.163Z,1013.43
2016-06-07T10:09:03.978Z,1013.4
2016-06-07T10:10:03.981Z,1013.55
2016-06-07T10:11:03.999Z,1013.57
2016-06-07T10:12:04.001Z,1013.56
2016-06-07T10:13:04.004Z,1013.58
2016-06-07T10:14:04.007Z,1013.59
2016-06-07T10:15:04.010Z,1013.57
2016-06-07T10:16:04.013Z,1013.59
2016-06-07T10:17:04.031Z,1013.6
2016-06-07T10:18:04.018Z,1013.6
2016-06-07T10:19:04.037Z,1013.57
2016-06-07T10:20:04.041Z,1013.59
2016-06-07T10:21:04.043Z,1013.61
2016-06-07T10:22:04.045Z,1013.6
2016-06-07T10:23:04.049Z,1013.6
2016-06-07T10:24:04.066Z,1013.61
2016-06-07T10:25:04.053Z,1013.63
2016-06-07T10:26:04.057Z,1013.68
2016-06-07T10:27:04.059Z,1013.69
2016-06-07T10:28:04.077Z,1013.7
2016-06-07T10:29:04.079Z,1013.68
2016-06-07T10:30:05.176Z,1013.7
2016-06-07T10:31:04.084Z,1013.66
2016-06-07T10:32:04.088Z,1013.65
2016-06-07T10:33:04.090Z,1013.66
2016-06-07T10:34:04.093Z,1013.6
2016-06-07T10:35:04.096Z,1013.68
2016-06-07T10:36:04.114Z,1013.69
2016-06-07T10:37:04.117Z,1013.67
2016-06-07T10:38:04.666Z,1013.66
2016-06-07T10:39:04.295Z,1013.69
2016-06-07T10:40:04.125Z,1013.68
2016-06-07T10:41:04.128Z,1013.7
2016-06-07T10:42:04.131Z,1013.68
2016-06-07T10:43:04.133Z,1013.69
2016-06-07T10:44:04.151Z,1013.67
2016-06-07T10:45:04.154Z,1013.67
2016-06-07T10:46:04.156Z,1013.7
2016-06-07T10:47:04.159Z,1013.66
2016-06-07T10:48:04.161Z,1013.62
2016-06-07T10:49:04.181Z,1013.61
2016-06-07T10:50:04.183Z,1013.59
2016-06-07T10:51:04.186Z,1013.57
2016-06-07T10:52:04.188Z,1013.55
2016-06-07T10:53:04.191Z,1013.55
2016-06-07T10:54:04.193Z,1013.51
2016-06-07T10:55:04.225Z,1013.54
2016-06-07T10:56:04.243Z,1013.54
2016-06-07T10:57:04.260Z,1013.51
2016-06-07T10:58:04.278Z,1013.47
2016-06-07T10:59:04.296Z,1013.48
2016-06-07T11:00:04.306Z,1013.51
2016-06-07T11:01:04.328Z,1013.55
2016-06-07T11:02:04.336Z,1013.52
2016-06-07T11:03:04.361Z,1013.47
2016-06-07T11:04:04.353Z,1013.49
2016-06-07T11:05:04.374Z,1013.47
2016-06-07T11:06:04.378Z,1013.49
2016-06-07T11:07:04.383Z,1013.49
2016-06-07T11:08:04.388Z,1013.51
2016-06-07T11:09:04.409Z,1013.46
2016-06-07T11:10:04.396Z,1013.48
2016-06-07T11:11:04.415Z,1013.47
2016-06-07T11:12:04.419Z,1013.49
2016-06-07T11:13:04.423Z,1013.51
2016-06-07T11:14:04.425Z,1013.49
2016-06-07T11:15:04.429Z,1013.45
2016-06-07T11:16:04.447Z,1013.47
2016-06-07T11:17:04.450Z,1013.41
2016-06-07T11:18:04.453Z,1013.43
2016-06-07T11:19:04.456Z,1013.39
2016-06-07T11:20:04.662Z,1013.41
2016-06-07T11:21:04.478Z,1013.41
2016-06-07T11:22:04.480Z,1013.43
2016-06-07T11:23:04.780Z,1013.39
2016-06-07T11:24:04.500Z,1013.4
2016-06-07T11:25:04.503Z,1013.37
2016-06-07T11:26:04.506Z,1013.37
2016-06-07T11:27:04.508Z,1013.39
2016-06-07T11:28:04.512Z,1013.36
2016-06-07T11:29:04.530Z,1013.35
2016-06-07T11:30:04.533Z,1013.37
2016-06-07T11:31:04.535Z,1013.41
2016-06-07T11:32:04.555Z,1013.35
2016-06-07T11:33:04.557Z,1013.36
2016-06-07T11:34:04.560Z,1013.37
2016-06-07T11:35:04.624Z,1013.34
2016-06-07T11:36:04.565Z,1013.36
2016-06-07T11:37:04.582Z,1013.31
2016-06-07T11:38:04.585Z,1013.38
2016-06-07T11:39:04.588Z,1013.37
2016-06-07T11:40:04.606Z,1013.36
2016-06-07T11:41:04.609Z,1013.37
2016-06-07T11:42:04.612Z,1013.42
2016-06-07T11:43:04.724Z,1013.36
2016-06-07T11:44:04.634Z,1013.34
2016-06-07T11:45:04.636Z,1013.31
2016-06-07T11:46:04.639Z,1013.33
2016-06-07T11:47:04.703Z,1013.38
2016-06-07T11:48:04.659Z,1013.36
2016-06-07T11:49:04.662Z,1013.35
2016-06-07T11:50:04.665Z,1013.34
2016-06-07T11:51:04.684Z,1013.3
2016-06-07T11:52:04.686Z,1013.31
2016-06-07T11:53:04.689Z,1013.33
2016-06-07T11:54:05.081Z,1013.32
2016-06-07T11:55:04.694Z,1013.25
2016-06-07T11:56:04.711Z,1013.25
2016-06-07T11:57:04.715Z,1013.31
2016-06-07T11:58:04.733Z,1013.33
2016-06-07T11:59:04.736Z,1013.28
2016-06-07T12:00:04.755Z,1013.32
2016-06-07T12:01:04.757Z,1013.34
2016-06-07T12:02:04.744Z,1013.3
2016-06-07T12:03:04.762Z,1013.3
2016-06-07T12:04:04.765Z,1013.27
2016-06-07T12:05:04.768Z,1013.26
2016-06-07T12:06:04.771Z,1013.29
2016-06-07T12:07:04.774Z,1013.25